Time;durP1;ratioP1;P1;durP2;ratioP2;P2;SDS_P1;SDS_P2;PMS_P1;PMS_P2;Temp;Humidity;BMP_temperature;BMP_pressure;BME280_temperature;BME280_humidity;BME280_pressure;Samples;Min_cycle;Max_cycle;Signal;HPM_P1;HPM_P2
2024/01/08 00:01:28;;;;;;;2.30;2.10;;;0.40;99.90;;;;;;5023159;28;20214;-59
2024/01/08 00:03:55;;;;;;;2.60;1.90;;;0.40;99.90;;;;;;5024941;28;20233;-57
2024/01/08 00:06:23;;;;;;;2.10;1.90;;;0.30;99.90;;;;;;5024424;28;20206;-57
2024/01/08 00:08:50;;;;;;;1.90;1.70;;;0.30;99.90;;;;;;5021473;28;20210;-58
2024/01/08 00:11:17;;;;;;;2.60;1.97;;;0.20;99.90;;;;;;5021336;28;20210;-58
2024/01/08 00:13:44;;;;;;;3.00;2.27;;;0.20;99.90;;;;;;5013275;28;20214;-58
2024/01/08 00:16:11;;;;;;;3.23;2.03;;;0.20;99.90;;;;;;5021435;28;20320;-57
2024/01/08 00:18:37;;;;;;;2.77;2.03;;;0.20;99.90;;;;;;5023987;28;20214;-58
2024/01/08 00:21:04;;;;;;;2.83;2.00;;;0.20;99.90;;;;;;5024816;28;20209;-58
2024/01/08 00:23:34;;;;;;;2.47;2.20;;;0.20;99.90;;;;;;5023103;28;20220;-59
2024/01/08 00:26:00;;;;;;;3.43;2.23;;;0.10;99.90;;;;;;5021262;28;20203;-58
2024/01/08 00:28:27;;;;;;;2.20;1.90;;;0.20;99.90;;;;;;5022440;28;20203;-59
2024/01/08 00:30:54;;;;;;;2.30;1.90;;;0.20;99.90;;;;;;5024678;28;20202;-58
2024/01/08 00:33:21;;;;;;;2.40;2.20;;;0.20;99.90;;;;;;5023369;28;20215;-58
2024/01/08 00:35:47;;;;;;;2.73;2.20;;;0.10;99.90;;;;;;5020792;28;20244;-58
2024/01/08 00:38:14;;;;;;;2.47;2.07;;;0.20;99.90;;;;;;5021096;28;20257;-58
2024/01/08 00:40:42;;;;;;;3.60;2.40;;;0.20;99.90;;;;;;5024103;28;20205;-58
2024/01/08 00:43:09;;;;;;;3.07;2.27;;;0.20;99.90;;;;;;5024375;28;20256;-58
2024/01/08 00:45:36;;;;;;;3.17;2.20;;;0.20;99.90;;;;;;5021637;28;20226;-59
2024/01/08 00:48:03;;;;;;;3.30;2.50;;;0.30;99.90;;;;;;5021171;28;20622;-57
2024/01/08 00:50:30;;;;;;;2.70;2.43;;;0.30;99.90;;;;;;5022086;28;20215;-59
2024/01/08 00:52:56;;;;;;;4.33;2.20;;;0.40;99.90;;;;;;5024118;28;20199;-58
2024/01/08 00:55:23;;;;;;;3.57;2.30;;;0.30;99.90;;;;;;5023412;28;20238;-58
2024/01/08 00:57:51;;;;;;;2.33;2.00;;;0.40;99.90;;;;;;5020911;28;20214;-59
2024/01/08 01:00:18;;;;;;;2.40;2.20;;;0.50;99.90;;;;;;5020665;28;20226;-58
2024/01/08 01:02:44;;;;;;;2.63;2.00;;;0.40;99.90;;;;;;5012769;28;20210;-58
2024/01/08 01:05:11;;;;;;;2.80;2.50;;;0.40;99.90;;;;;;5020359;28;20762;-57
2024/01/08 01:07:38;;;;;;;3.37;2.50;;;0.50;99.90;;;;;;5023063;28;20203;-58
2024/01/08 01:10:06;;;;;;;3.17;2.13;;;0.50;99.90;;;;;;5023946;28;20207;-58
2024/01/08 01:12:32;;;;;;;2.60;2.03;;;0.60;99.90;;;;;;5021892;28;20628;-58
2024/01/08 01:15:00;;;;;;;2.67;2.23;;;0.60;99.90;;;;;;5020129;28;20237;-58
2024/01/08 01:17:27;;;;;;;2.40;2.10;;;0.60;99.90;;;;;;5021276;28;20211;-58
2024/01/08 01:19:54;;;;;;;2.23;2.03;;;0.40;99.90;;;;;;5023913;28;20289;-60
2024/01/08 01:22:20;;;;;;;2.30;2.10;;;0.40;99.90;;;;;;5023724;28;20296;-59
2024/01/08 01:24:47;;;;;;;2.60;2.40;;;0.40;99.90;;;;;;5019862;28;20219;-58
2024/01/08 01:27:14;;;;;;;3.03;2.27;;;0.50;99.90;;;;;;5020263;28;20668;-58
2024/01/08 01:29:40;;;;;;;2.77;2.00;;;0.50;99.90;;;;;;5022637;28;20683;-59
2024/01/08 01:32:08;;;;;;;2.40;2.20;;;0.50;99.90;;;;;;5023371;28;20565;-58
2024/01/08 01:34:35;;;;;;;3.20;2.53;;;0.40;99.90;;;;;;5021076;28;20233;-59
2024/01/08 01:37:02;;;;;;;3.33;2.40;;;0.40;99.90;;;;;;5020072;28;20222;-61
2024/01/08 01:39:29;;;;;;;2.73;2.53;;;0.40;99.90;;;;;;5021038;28;20214;-59
2024/01/08 01:41:55;;;;;;;3.60;2.47;;;0.40;99.90;;;;;;5023446;28;20213;-58
2024/01/08 01:44:22;;;;;;;2.90;2.40;;;0.40;99.90;;;;;;5022349;28;20237;-58
2024/01/08 01:46:51;;;;;;;2.47;2.17;;;0.30;99.90;;;;;;5019340;28;20673;-59
2024/01/08 01:49:20;;;;;;;2.77;2.43;;;0.40;99.90;;;;;;5020154;28;20264;-59
2024/01/08 01:51:49;;;;;;;3.20;2.50;;;0.50;99.90;;;;;;5012036;28;20211;-59
2024/01/08 01:54:17;;;;;;;3.17;2.77;;;0.60;99.90;;;;;;5019566;28;20228;-58
2024/01/08 01:56:47;;;;;;;2.87;2.43;;;0.60;99.90;;;;;;5022763;28;20222;-59
2024/01/08 01:59:17;;;;;;;4.00;2.53;;;0.60;99.90;;;;;;5023014;28;20198;-59
2024/01/08 02:01:45;;;;;;;2.47;2.23;;;0.60;99.90;;;;;;5020282;28;20586;-59
2024/01/08 02:04:13;;;;;;;2.23;2.03;;;0.50;99.90;;;;;;5019368;28;20249;-58
2024/01/08 02:06:42;;;;;;;4.57;2.80;;;0.60;99.90;;;;;;5022135;28;20211;-58
2024/01/08 02:09:09;;;;;;;3.50;2.60;;;0.60;99.90;;;;;;5023130;28;20202;-58
2024/01/08 02:11:36;;;;;;;2.70;2.43;;;0.60;99.90;;;;;;5020635;28;20216;-58
2024/01/08 02:14:03;;;;;;;3.77;2.87;;;0.60;99.90;;;;;;5019452;28;20265;-58
2024/01/08 02:16:30;;;;;;;3.17;2.77;;;0.60;99.90;;;;;;5020561;28;20631;-59
2024/01/08 02:18:57;;;;;;;3.03;2.73;;;0.70;99.90;;;;;;5023157;28;20206;-58
2024/01/08 02:21:23;;;;;;;3.10;2.53;;;0.70;99.90;;;;;;5022437;28;20214;-58
2024/01/08 02:23:51;;;;;;;2.93;2.30;;;0.70;99.90;;;;;;5019374;28;20222;-59
2024/01/08 02:26:19;;;;;;;3.80;2.53;;;0.70;99.90;;;;;;5019329;28;20203;-58
2024/01/08 02:28:46;;;;;;;2.93;2.60;;;0.70;99.90;;;;;;5022532;28;20256;-58
2024/01/08 02:31:13;;;;;;;2.87;2.43;;;0.70;99.90;;;;;;5022990;28;20202;-58
2024/01/08 02:33:39;;;;;;;2.40;2.20;;;0.70;99.90;;;;;;5020114;28;20210;-59
2024/01/08 02:36:07;;;;;;;3.23;2.63;;;0.70;99.90;;;;;;5019224;28;20218;-58
2024/01/08 02:38:33;;;;;;;3.73;2.60;;;0.60;99.90;;;;;;5020827;28;20696;-60
2024/01/08 02:41:01;;;;;;;3.90;2.70;;;0.60;99.90;;;;;;5022614;28;20206;-58
2024/01/08 02:43:28;;;;;;;2.83;2.37;;;0.70;99.90;;;;;;5021405;28;20707;-59
2024/01/08 02:45:55;;;;;;;3.10;2.43;;;0.70;99.90;;;;;;5019462;28;20207;-59
2024/01/08 02:48:22;;;;;;;2.70;2.40;;;0.60;99.90;;;;;;5019305;28;20673;-58
2024/01/08 02:50:49;;;;;;;3.00;2.50;;;0.60;99.90;;;;;;5022788;28;20700;-58
2024/01/08 02:53:15;;;;;;;3.00;2.20;;;0.60;99.90;;;;;;5022545;28;20203;-57
2024/01/08 02:55:42;;;;;;;3.40;2.57;;;0.70;99.90;;;;;;5020062;28;20234;-60
2024/01/08 02:58:10;;;;;;;3.60;2.60;;;0.60;99.90;;;;;;5022844;28;20207;-58
2024/01/08 03:00:37;;;;;;;2.10;1.83;;;0.60;99.90;;;;;;5024815;28;20218;-59
2024/01/08 03:03:04;;;;;;;2.77;2.40;;;0.50;99.90;;;;;;5026213;28;20206;-57
2024/01/08 03:05:31;;;;;;;2.63;2.27;;;0.50;99.90;;;;;;5025132;28;20242;-58
2024/01/08 03:07:57;;;;;;;2.60;2.10;;;0.40;99.90;;;;;;5022731;28;20566;-58
2024/01/08 03:10:24;;;;;;;2.60;2.37;;;0.40;99.90;;;;;;5023132;28;20234;-60
2024/01/08 03:12:51;;;;;;;3.00;2.40;;;0.40;99.90;;;;;;5026289;28;20213;-58
2024/01/08 03:15:19;;;;;;;2.60;2.40;;;0.40;99.90;;;;;;5025854;28;20731;-58
2024/01/08 03:17:45;;;;;;;3.07;2.20;;;0.40;99.90;;;;;;5022922;28;20195;-57
2024/01/08 03:20:12;;;;;;;2.93;2.30;;;0.50;99.90;;;;;;5022676;28;20273;-58
2024/01/08 03:22:39;;;;;;;3.27;2.47;;;0.50;99.90;;;;;;5024444;28;20213;-58
2024/01/08 03:25:07;;;;;;;2.93;2.23;;;0.50;99.90;;;;;;5026022;28;20250;-60
2024/01/08 03:27:33;;;;;;;3.27;2.47;;;0.50;99.90;;;;;;5024289;28;20617;-58
2024/01/08 03:30:00;;;;;;;3.33;2.30;;;0.40;99.90;;;;;;5022433;28;20214;-59
2024/01/08 03:32:28;;;;;;;3.60;2.40;;;0.40;99.90;;;;;;5022707;28;20634;-59
2024/01/08 03:34:55;;;;;;;4.37;2.57;;;0.40;99.90;;;;;;5025137;28;20764;-59
2024/01/08 03:37:21;;;;;;;4.23;2.40;;;0.40;99.90;;;;;;5025536;28;20234;-58
2024/01/08 03:39:48;;;;;;;4.60;2.83;;;0.50;99.90;;;;;;5022349;28;20252;-58
2024/01/08 03:42:15;;;;;;;4.17;2.27;;;0.50;99.90;;;;;;5022193;28;20202;-58
2024/01/08 03:44:42;;;;;;;3.03;2.50;;;0.50;99.90;;;;;;5052599;22;20233;-52
2024/01/08 03:47:08;;;;;;;2.97;2.33;;;0.50;99.90;;;;;;5033420;28;20205;-51
2024/01/08 03:49:36;;;;;;;3.10;2.30;;;0.60;99.90;;;;;;5033054;28;20215;-51
2024/01/08 03:52:03;;;;;;;2.90;2.30;;;0.60;99.90;;;;;;5033477;28;20207;-52
2024/01/08 03:54:30;;;;;;;3.03;2.40;;;0.50;99.90;;;;;;5032069;28;20719;-52
2024/01/08 03:56:56;;;;;;;3.37;2.27;;;0.40;99.90;;;;;;5021888;28;20225;-52
2024/01/08 03:59:23;;;;;;;3.43;2.33;;;0.40;99.90;;;;;;5021753;28;20214;-51
2024/01/08 04:01:50;;;;;;;3.17;2.53;;;0.30;99.90;;;;;;5021670;28;20210;-52
2024/01/08 04:04:17;;;;;;;2.80;2.00;;;0.20;99.90;;;;;;5021165;28;20219;-52
2024/01/08 04:06:46;;;;;;;2.57;2.30;;;0.20;99.90;;;;;;5024166;28;20552;-52
2024/01/08 04:09:15;;;;;;;2.47;2.20;;;0.20;99.90;;;;;;5024129;28;20295;-52
2024/01/08 04:11:42;;;;;;;3.17;2.50;;;0.20;99.90;;;;;;5022262;28;20257;-52
2024/01/08 04:14:09;;;;;;;2.43;2.17;;;0.30;99.90;;;;;;5021184;28;20231;-53
2024/01/08 04:16:38;;;;;;;3.03;2.40;;;0.30;99.90;;;;;;5022472;28;20223;-52
2024/01/08 04:19:04;;;;;;;3.70;2.63;;;0.30;99.90;;;;;;5025023;28;20237;-52
2024/01/08 04:21:31;;;;;;;2.70;2.27;;;0.30;99.90;;;;;;5023659;28;20914;-52
2024/01/08 04:23:59;;;;;;;2.90;2.20;;;0.30;99.90;;;;;;5021019;28;20761;-51
2024/01/08 04:26:27;;;;;;;3.07;2.50;;;0.30;99.90;;;;;;5021148;28;20207;-51
2024/01/08 04:28:53;;;;;;;2.90;2.23;;;0.30;99.90;;;;;;5024335;28;20289;-51
2024/01/08 04:31:21;;;;;;;4.07;2.10;;;0.30;99.90;;;;;;5024425;28;20704;-51
2024/01/08 04:33:48;;;;;;;2.97;2.30;;;0.20;99.90;;;;;;5021056;28;20585;-51
2024/01/08 04:36:15;;;;;;;2.70;2.40;;;0.20;99.90;;;;;;5020972;28;20219;-51
2024/01/08 04:38:44;;;;;;;3.13;2.40;;;0.20;99.90;;;;;;5023177;28;20210;-51
2024/01/08 04:41:18;;;;;;;2.70;2.27;;;0.20;99.90;;;;;;5024535;28;20206;-51
2024/01/08 04:43:45;;;;;;;3.63;2.40;;;0.30;99.90;;;;;;5021128;28;20294;-51
2024/01/08 04:46:12;;;;;;;7.10;2.87;;;0.40;99.90;;;;;;5020524;28;20290;-52
2024/01/08 04:48:38;;;;;;;2.90;2.60;;;0.50;99.90;;;;;;5022269;28;20217;-52
2024/01/08 04:51:05;;;;;;;3.53;2.93;;;0.60;99.90;;;;;;5024095;28;20206;-51
2024/01/08 04:53:34;;;;;;;3.57;2.63;;;0.60;99.90;;;;;;5023008;28;20202;-51
2024/01/08 04:56:00;;;;;;;2.90;2.20;;;0.60;99.90;;;;;;5025110;28;20268;-52
2024/01/08 04:58:29;;;;;;;3.77;2.77;;;0.50;99.90;;;;;;5023563;28;20217;-52
2024/01/08 05:00:56;;;;;;;3.40;2.40;;;0.50;99.90;;;;;;5020490;28;20207;-52
2024/01/08 05:03:22;;;;;;;3.40;2.67;;;0.40;99.90;;;;;;5020525;28;20217;-52
2024/01/08 05:05:49;;;;;;;3.70;2.60;;;0.40;99.90;;;;;;5023331;28;20272;-51
2024/01/08 05:08:15;;;;;;;3.00;2.57;;;0.30;99.90;;;;;;5023834;28;20195;-52
2024/01/08 05:10:42;;;;;;;2.87;2.30;;;0.30;99.90;;;;;;5021630;28;20214;-51
2024/01/08 05:13:09;;;;;;;3.23;2.50;;;0.20;99.90;;;;;;5019895;28;20202;-51
2024/01/08 05:15:37;;;;;;;2.97;2.37;;;0.20;99.90;;;;;;5021150;28;20235;-51
2024/01/08 05:18:04;;;;;;;3.60;2.30;;;0.20;99.90;;;;;;5023218;28;20218;-51
2024/01/08 05:20:31;;;;;;;3.30;2.47;;;0.20;99.90;;;;;;5022617;28;20267;-51
2024/01/08 05:22:58;;;;;;;4.03;2.40;;;0.20;99.90;;;;;;5019783;28;20207;-51
2024/01/08 05:25:25;;;;;;;3.53;2.53;;;0.10;99.90;;;;;;5019753;28;20230;-51
2024/01/08 05:27:52;;;;;;;3.57;2.63;;;0.10;99.90;;;;;;5023373;28;20205;-51
2024/01/08 05:30:18;;;;;;;3.40;2.63;;;0.00;99.90;;;;;;5023456;28;20218;-51
2024/01/08 05:32:48;;;;;;;3.80;2.70;;;0.00;99.90;;;;;;5020425;28;20676;-52
2024/01/08 05:35:15;;;;;;;2.67;2.37;;;-0.10;99.90;;;;;;5019627;28;20219;-52
2024/01/08 05:37:41;;;;;;;2.87;2.30;;;-0.10;99.90;;;;;;5021771;28;20223;-52
2024/01/08 05:40:09;;;;;;;3.27;2.30;;;-0.10;99.90;;;;;;5023097;28;20234;-52
2024/01/08 05:42:35;;;;;;;2.90;2.50;;;-0.10;99.90;;;;;;5021583;28;20294;-52
2024/01/08 05:45:02;;;;;;;4.03;2.90;;;-0.10;99.90;;;;;;5019577;28;20227;-52
2024/01/08 05:47:29;;;;;;;3.10;2.40;;;-0.10;99.90;;;;;;5019961;28;20211;-52
2024/01/08 05:49:57;;;;;;;2.47;2.13;;;-0.10;99.90;;;;;;5023096;28;20225;-52
2024/01/08 05:52:23;;;;;;;2.80;2.23;;;-0.10;99.90;;;;;;5022834;28;20676;-52
2024/01/08 05:54:50;;;;;;;2.50;2.30;;;-0.10;99.90;;;;;;5019326;28;20219;-52
2024/01/08 05:57:19;;;;;;;2.30;2.00;;;-0.20;99.90;;;;;;5019599;28;20222;-53
2024/01/08 05:59:45;;;;;;;2.40;2.17;;;-0.30;99.90;;;;;;5021992;28;20217;-52
2024/01/08 06:02:12;;;;;;;2.80;2.30;;;-0.30;99.90;;;;;;5022926;28;20199;-53
2024/01/08 06:04:39;;;;;;;3.40;2.70;;;-0.20;99.90;;;;;;5021104;28;20222;-53
2024/01/08 06:07:07;;;;;;;3.30;2.67;;;-0.10;99.90;;;;;;5019360;28;20269;-53
2024/01/08 06:09:35;;;;;;;5.03;2.47;;;0.00;99.90;;;;;;5020606;28;20219;-51
2024/01/08 06:12:02;;;;;;;5.20;3.47;;;0.00;99.90;;;;;;5022867;28;20202;-54
2024/01/08 06:14:28;;;;;;;6.33;2.60;;;0.00;99.90;;;;;;5022733;28;20226;-51
2024/01/08 06:16:55;;;;;;;3.90;2.40;;;-0.10;99.90;;;;;;5019075;28;20219;-53
2024/01/08 06:19:22;;;;;;;3.17;2.43;;;-0.10;99.90;;;;;;5019313;28;20261;-53
2024/01/08 06:21:49;;;;;;;3.00;2.60;;;-0.30;99.90;;;;;;5021676;28;20312;-53
2024/01/08 06:24:17;;;;;;;3.87;2.47;;;-0.20;99.90;;;;;;5022494;28;20218;-52
2024/01/08 06:26:44;;;;;;;4.17;2.60;;;-0.10;99.90;;;;;;5020624;28;20292;-51
2024/01/08 06:29:11;;;;;;;3.93;2.60;;;-0.10;99.90;;;;;;5019182;28;20241;-53
2024/01/08 06:31:38;;;;;;;3.30;2.27;;;0.00;99.90;;;;;;5021622;28;20203;-53
2024/01/08 06:34:05;;;;;;;4.87;3.00;;;0.10;99.90;;;;;;5026331;28;20206;-52
2024/01/08 06:36:31;;;;;;;3.03;2.37;;;0.20;99.90;;;;;;5026333;28;20230;-52
2024/01/08 06:38:58;;;;;;;4.40;2.73;;;0.20;99.90;;;;;;5023075;28;20294;-52
2024/01/08 06:41:26;;;;;;;3.30;2.70;;;0.10;99.90;;;;;;5023199;28;20589;-52
2024/01/08 06:43:53;;;;;;;4.60;2.73;;;0.10;99.90;;;;;;5026008;28;20253;-52
2024/01/08 06:46:19;;;;;;;5.00;2.87;;;0.20;99.90;;;;;;5026352;28;20214;-52
2024/01/08 06:48:46;;;;;;;3.87;2.50;;;0.20;99.90;;;;;;5024108;28;20202;-52
2024/01/08 06:51:13;;;;;;;4.10;3.07;;;0.30;99.90;;;;;;5023070;28;20211;-52
2024/01/08 06:53:39;;;;;;;3.63;2.73;;;0.30;99.90;;;;;;5023996;28;20203;-52
2024/01/08 06:56:07;;;;;;;4.17;2.70;;;0.30;99.90;;;;;;5025911;28;20295;-53
2024/01/08 06:58:35;;;;;;;3.70;2.63;;;0.30;99.90;;;;;;5025466;28;20233;-52
2024/01/08 07:01:02;;;;;;;2.90;2.60;;;0.30;99.90;;;;;;5022460;28;20203;-53
2024/01/08 07:03:29;;;;;;;3.20;2.50;;;0.30;99.90;;;;;;5022149;28;20743;-52
2024/01/08 07:05:55;;;;;;;4.37;2.70;;;0.40;99.90;;;;;;5022420;28;20735;-53
2024/01/08 07:08:22;;;;;;;4.77;2.70;;;0.40;99.90;;;;;;5022541;28;20234;-53
2024/01/08 07:10:49;;;;;;;3.37;2.60;;;0.40;99.90;;;;;;5024948;28;20207;-51
2024/01/08 07:13:17;;;;;;;3.20;2.70;;;0.40;99.90;;;;;;5025753;28;20289;-53
2024/01/08 07:15:48;;;;;;;3.63;3.07;;;0.40;99.90;;;;;;5023552;28;20265;-53
2024/01/08 07:18:16;;;;;;;3.07;2.53;;;0.40;99.90;;;;;;5022273;28;20305;-52
2024/01/08 07:20:43;;;;;;;3.70;2.70;;;0.30;99.90;;;;;;5024054;28;20222;-53
2024/01/08 07:23:11;;;;;;;6.70;3.20;;;0.30;99.90;;;;;;5025507;28;20202;-52
2024/01/08 07:25:38;;;;;;;4.00;2.70;;;0.40;99.90;;;;;;5024276;28;20230;-53
2024/01/08 07:28:07;;;;;;;4.30;2.90;;;0.40;99.90;;;;;;5022083;28;20195;-52
2024/01/08 07:30:34;;;;;;;5.63;3.00;;;0.40;99.90;;;;;;5022298;28;20265;-53
2024/01/08 07:33:02;;;;;;;4.73;2.87;;;0.40;99.90;;;;;;5025508;28;20206;-53
2024/01/08 07:35:29;;;;;;;3.27;2.70;;;0.30;99.90;;;;;;5025457;28;20657;-53
2024/01/08 07:37:56;;;;;;;3.40;2.73;;;0.20;99.90;;;;;;5021794;28;20704;-53
2024/01/08 07:40:24;;;;;;;3.60;2.50;;;0.20;99.90;;;;;;5021800;28;20218;-53
2024/01/08 07:42:52;;;;;;;3.07;2.50;;;0.20;99.90;;;;;;5023004;28;20496;-53
2024/01/08 07:45:19;;;;;;;4.30;2.90;;;0.20;99.90;;;;;;5024678;28;20790;-53
2024/01/08 07:47:46;;;;;;;3.27;2.70;;;0.20;99.90;;;;;;5023269;28;20202;-53
2024/01/08 07:50:14;;;;;;;5.83;2.90;;;0.30;99.90;;;;;;5021482;28;20624;-53
2024/01/08 07:52:41;;;;;;;5.27;2.70;;;0.40;99.90;;;;;;5022644;28;20727;-54
2024/01/08 07:55:08;;;;;;;3.97;3.13;;;0.40;99.90;;;;;;5024761;28;20715;-52
2024/01/08 07:57:36;;;;;;;3.90;3.03;;;0.40;99.90;;;;;;5024173;28;20634;-53
2024/01/08 08:00:03;;;;;;;3.67;2.70;;;0.50;99.90;;;;;;5021708;28;20211;-53
2024/01/08 08:02:29;;;;;;;3.43;2.77;;;0.50;99.90;;;;;;5021484;28;20261;-50
2024/01/08 08:04:56;;;;;;;3.60;2.57;;;0.50;99.90;;;;;;5024581;28;20228;-53
2024/01/08 08:07:24;;;;;;;2.93;2.50;;;0.50;99.90;;;;;;5025271;28;20289;-53
2024/01/08 08:09:51;;;;;;;3.23;2.80;;;0.40;99.90;;;;;;5021946;28;20670;-54
2024/01/08 08:12:19;;;;;;;3.17;2.70;;;0.40;99.90;;;;;;5021150;28;20211;-52
2024/01/08 08:14:47;;;;;;;4.37;3.03;;;0.50;99.90;;;;;;5020968;28;20284;-52
2024/01/08 08:17:14;;;;;;;4.27;3.30;;;0.60;99.90;;;;;;5021137;28;20267;-53
2024/01/08 08:19:40;;;;;;;4.17;2.90;;;0.70;99.90;;;;;;5022495;28;20238;-53
2024/01/08 08:22:07;;;;;;;3.13;2.63;;;0.80;99.90;;;;;;5024367;28;20202;-53
2024/01/08 08:24:35;;;;;;;3.97;2.80;;;0.70;99.90;;;;;;5023732;28;20226;-53
2024/01/08 08:27:02;;;;;;;3.67;2.73;;;0.70;99.90;;;;;;5021285;28;20203;-53
2024/01/08 08:29:28;;;;;;;3.90;3.03;;;0.60;99.90;;;;;;5021116;28;20214;-53
2024/01/08 08:31:55;;;;;;;4.57;3.20;;;0.50;99.90;;;;;;5023936;28;20205;-53
2024/01/08 08:34:22;;;;;;;5.03;2.87;;;0.50;99.90;;;;;;5024089;28;20230;-53
2024/01/08 08:36:49;;;;;;;4.33;2.53;;;0.50;99.90;;;;;;5022256;28;20236;-52
2024/01/08 08:39:16;;;;;;;4.43;3.00;;;0.40;99.90;;;;;;5020658;28;20594;-53
2024/01/08 08:41:45;;;;;;;3.70;2.60;;;0.40;99.90;;;;;;5022024;28;20673;-53
2024/01/08 08:44:12;;;;;;;4.03;2.70;;;0.40;99.90;;;;;;5023752;28;20226;-52
2024/01/08 08:46:39;;;;;;;5.30;3.07;;;0.40;99.90;;;;;;5023339;28;20293;-53
2024/01/08 08:49:06;;;;;;;3.37;2.87;;;0.30;99.90;;;;;;5020732;28;20199;-53
2024/01/08 08:51:33;;;;;;;3.90;2.80;;;0.30;99.90;;;;;;5020467;28;20313;-51
2024/01/08 08:54:03;;;;;;;4.90;3.00;;;0.20;99.90;;;;;;5023314;28;20241;-54
2024/01/08 08:56:30;;;;;;;3.73;2.90;;;0.20;99.90;;;;;;5024065;28;20631;-53
2024/01/08 08:58:58;;;;;;;3.90;2.93;;;0.20;99.90;;;;;;5020432;28;20225;-51
2024/01/08 09:01:25;;;;;;;5.73;3.10;;;0.30;99.90;;;;;;5020462;28;20207;-52
2024/01/08 09:03:52;;;;;;;4.60;3.00;;;0.40;99.90;;;;;;5022493;28;20524;-53
2024/01/08 09:06:20;;;;;;;3.53;3.03;;;0.50;99.90;;;;;;5023712;28;20214;-54
2024/01/08 09:08:47;;;;;;;4.60;3.10;;;0.50;99.90;;;;;;5022184;28;20202;-53
2024/01/08 09:11:13;;;;;;;4.87;2.93;;;0.60;99.90;;;;;;5020422;28;20289;-52
2024/01/08 09:13:40;;;;;;;3.40;2.60;;;0.70;99.90;;;;;;5020786;28;20207;-52
2024/01/08 09:16:10;;;;;;;4.43;3.10;;;0.70;99.90;;;;;;5023508;28;20222;-52
2024/01/08 09:18:37;;;;;;;3.80;2.70;;;0.70;99.90;;;;;;5023538;28;20230;-52
2024/01/08 09:21:06;;;;;;;4.70;3.10;;;0.70;99.90;;;;;;5020035;28;20676;-52
2024/01/08 09:23:32;;;;;;;3.63;2.60;;;0.60;99.90;;;;;;5019817;28;20672;-53
2024/01/08 09:25:59;;;;;;;3.13;2.60;;;0.40;99.90;;;;;;5011835;28;20235;-53
2024/01/08 09:28:26;;;;;;;3.80;3.03;;;0.40;99.90;;;;;;5019976;28;20677;-52
2024/01/08 09:30:54;;;;;;;4.07;3.10;;;0.40;99.90;;;;;;5022187;28;20739;-53
2024/01/08 09:33:22;;;;;;;4.17;3.10;;;0.40;99.90;;;;;;5023029;28;20214;-53
2024/01/08 09:35:49;;;;;;;3.97;2.60;;;0.50;99.90;;;;;;5021310;28;20222;-55
2024/01/08 09:38:16;;;;;;;4.90;3.00;;;0.60;99.90;;;;;;5020091;28;20223;-54
2024/01/08 09:40:43;;;;;;;4.00;2.83;;;0.60;99.90;;;;;;5020942;28;20207;-54
2024/01/08 09:43:12;;;;;;;3.90;3.10;;;0.60;99.90;;;;;;5023045;28;20198;-54
2024/01/08 09:45:46;;;;;;;4.40;2.90;;;0.70;99.90;;;;;;5022470;28;20230;-51
2024/01/08 09:48:12;;;;;;;3.50;2.80;;;0.80;99.90;;;;;;5019861;28;20207;-52
2024/01/08 09:50:41;;;;;;;3.53;2.67;;;0.90;99.90;;;;;;5020124;28;20231;-50
2024/01/08 09:53:07;;;;;;;3.33;2.83;;;0.80;99.90;;;;;;5022869;28;20252;-50
2024/01/08 09:55:36;;;;;;;4.63;3.27;;;0.80;99.90;;;;;;5022998;28;20226;-52
2024/01/08 09:58:03;;;;;;;5.20;3.07;;;0.80;99.90;;;;;;5011723;28;20218;-51
2024/01/08 10:00:30;;;;;;;4.07;3.00;;;0.70;99.90;;;;;;5019599;28;20203;-51
2024/01/08 10:02:58;;;;;;;4.27;2.93;;;0.80;99.90;;;;;;5022555;28;20252;-51
2024/01/08 10:05:28;;;;;;;3.60;2.63;;;0.80;99.90;;;;;;5022844;28;20608;-50
2024/01/08 10:07:59;;;;;;;4.83;3.10;;;0.80;99.90;;;;;;5019811;28;20289;-50
2024/01/08 10:10:28;;;;;;;4.47;3.00;;;0.80;99.90;;;;;;5019499;28;20203;-49
2024/01/08 10:12:55;;;;;;;3.50;2.70;;;0.70;99.90;;;;;;5022222;28;20664;-49
2024/01/08 10:15:22;;;;;;;6.03;2.80;;;0.70;99.90;;;;;;5022674;28;20226;-49
2024/01/08 10:17:49;;;;;;;3.47;2.70;;;0.80;99.90;;;;;;5020914;28;20240;-49
2024/01/08 10:20:16;;;;;;;3.97;3.07;;;0.70;99.90;;;;;;5019722;28;20289;-48
2024/01/08 10:22:44;;;;;;;4.00;2.83;;;0.70;99.90;;;;;;5019707;28;20294;-51
2024/01/08 10:25:21;;;;;;;3.40;2.80;;;0.80;99.90;;;;;;5022461;28;20622;-55
2024/01/08 10:27:47;;;;;;;2.60;2.40;;;0.90;99.90;;;;;;5021364;28;20292;-50
2024/01/08 10:30:14;;;;;;;6.43;3.00;;;0.90;99.90;;;;;;5019555;28;20661;-50
2024/01/08 10:32:42;;;;;;;3.50;2.60;;;1.00;99.90;;;;;;5019785;28;20246;-49
2024/01/08 10:35:10;;;;;;;3.63;2.83;;;1.00;99.90;;;;;;5022731;28;20245;-50
2024/01/08 10:37:38;;;;;;;3.90;2.93;;;1.00;99.90;;;;;;5022822;28;20217;-53
2024/01/08 10:40:08;;;;;;;4.63;3.50;;;1.10;99.90;;;;;;5019573;28;20298;-50
2024/01/08 10:42:38;;;;;;;4.30;3.07;;;1.10;99.90;;;;;;5019964;28;20296;-52
2024/01/08 10:45:06;;;;;;;5.37;3.13;;;1.20;99.90;;;;;;5022711;28;20305;-50
2024/01/08 10:47:37;;;;;;;4.37;3.30;;;1.30;99.90;;;;;;5022959;28;20206;-52
2024/01/08 10:50:06;;;;;;;5.50;3.60;;;1.30;99.90;;;;;;5011677;28;20226;-50
2024/01/08 10:52:35;;;;;;;4.17;2.77;;;1.30;99.90;;;;;;5019146;28;20660;-50
2024/01/08 10:55:02;;;;;;;3.10;2.63;;;1.50;99.90;;;;;;5022446;28;20698;-50
2024/01/08 10:57:42;;;;;;;4.20;3.20;;;1.50;99.90;;;;;;5022729;28;20214;-51
2024/01/08 11:00:09;;;;;;;5.47;3.70;;;1.60;99.90;;;;;;5022770;28;20222;-50
2024/01/08 11:02:37;;;;;;;3.27;2.87;;;1.50;99.90;;;;;;5022480;28;20206;-51
2024/01/08 11:05:05;;;;;;;4.23;2.97;;;1.50;99.90;;;;;;5018743;28;20235;-49
2024/01/08 11:07:34;;;;;;;3.67;2.77;;;1.50;99.90;;;;;;5019270;28;20289;-50
2024/01/08 11:10:06;;;;;;;4.67;3.00;;;1.50;99.90;;;;;;5022161;28;20205;-49
2024/01/08 11:12:37;;;;;;;4.10;2.83;;;1.60;99.90;;;;;;5022192;28;20213;-51
2024/01/08 11:15:06;;;;;;;3.13;2.57;;;1.60;99.90;;;;;;5011019;28;20226;-50
2024/01/08 11:17:33;;;;;;;5.63;2.93;;;1.80;99.90;;;;;;5019750;28;20214;-50
2024/01/08 11:20:05;;;;;;;2.87;2.43;;;1.90;99.90;;;;;;5025758;28;20222;-50
2024/01/08 11:22:33;;;;;;;5.13;3.37;;;1.90;99.90;;;;;;5025816;28;20257;-51
2024/01/08 11:25:00;;;;;;;3.43;2.60;;;1.80;99.90;;;;;;5022246;28;20298;-50
2024/01/08 11:27:27;;;;;;;4.07;2.90;;;1.70;99.90;;;;;;5022050;28;20253;-50
2024/01/08 11:29:59;;;;;;;4.37;3.07;;;1.60;99.90;;;;;;5024328;28;20250;-53
2024/01/08 11:33:05;;;;;;;3.60;2.60;;;1.50;99.90;;;;;;5019281;28;20245;-49
2024/01/08 11:35:42;;;;;;;3.77;2.70;;;1.50;99.90;;;;;;5006520;28;20320;-50
2024/01/08 11:38:26;;;;;;;3.13;2.50;;;1.40;99.90;;;;;;5015024;28;20214;-51
2024/01/08 11:40:54;;;;;;;4.30;2.60;;;1.40;99.90;;;;;;5024188;28;20206;-50
2024/01/08 11:43:21;;;;;;;5.20;3.30;;;1.50;99.90;;;;;;5025751;28;20217;-50
2024/01/08 11:45:50;;;;;;;4.20;2.97;;;1.70;99.90;;;;;;5023874;28;20238;-52
2024/01/08 11:48:16;;;;;;;3.57;2.90;;;1.90;99.90;;;;;;5021907;28;20653;-53
2024/01/08 11:50:43;;;;;;;5.13;3.57;;;2.00;99.90;;;;;;5022337;28;20560;-50
2024/01/08 11:53:10;;;;;;;4.87;3.73;;;2.10;99.90;;;;;;5025078;28;20211;-50
2024/01/08 11:55:37;;;;;;;3.13;2.63;;;2.40;99.90;;;;;;5025135;28;20308;-48
2024/01/08 11:58:04;;;;;;;3.43;2.87;;;2.40;99.90;;;;;;5025506;28;20209;-52
2024/01/08 12:00:31;;;;;;;3.80;2.83;;;2.30;99.90;;;;;;5025221;28;20209;-51
2024/01/08 12:03:08;;;;;;;4.70;3.60;;;2.30;99.90;;;;;;5022207;28;20314;-49
2024/01/08 12:05:36;;;;;;;3.63;3.00;;;2.30;99.90;;;;;;5021549;28;20851;-49
2024/01/08 12:08:03;;;;;;;3.43;2.63;;;2.20;99.90;;;;;;5024694;28;20211;-52
2024/01/08 12:10:31;;;;;;;4.23;3.30;;;2.10;99.90;;;;;;5025169;28;20210;-50
2024/01/08 12:12:58;;;;;;;4.00;3.10;;;2.00;99.90;;;;;;5021854;28;20209;-49
2024/01/08 12:15:27;;;;;;;5.20;3.70;;;1.90;99.90;;;;;;5021021;28;20227;-50
2024/01/08 12:17:55;;;;;;;4.10;3.50;;;1.80;99.90;;;;;;5023803;28;20697;-50
2024/01/08 12:20:23;;;;;;;3.63;2.93;;;1.90;99.90;;;;;;5024877;28;20683;-50
2024/01/08 12:22:49;;;;;;;4.70;3.20;;;1.90;99.90;;;;;;5023076;28;20202;-51
2024/01/08 12:25:16;;;;;;;4.13;2.83;;;1.90;99.90;;;;;;5021393;28;20816;-54
2024/01/08 12:27:43;;;;;;;5.17;2.60;;;1.90;99.90;;;;;;5020046;28;20218;-53
2024/01/08 12:30:12;;;;;;;4.37;3.03;;;2.00;99.90;;;;;;5024032;28;20209;-53
2024/01/08 12:32:38;;;;;;;4.07;2.83;;;2.00;99.90;;;;;;5024072;28;20267;-53
2024/01/08 12:35:06;;;;;;;4.03;3.00;;;2.60;99.90;;;;;;5020564;28;20227;-56
2024/01/08 12:37:34;;;;;;;5.13;3.10;;;2.30;99.90;;;;;;5020691;28;20215;-55
2024/01/08 12:40:01;;;;;;;5.00;3.43;;;2.40;99.90;;;;;;5023643;28;20226;-54
2024/01/08 12:42:27;;;;;;;3.60;2.90;;;2.50;99.90;;;;;;5024142;28;20202;-55
2024/01/08 12:44:55;;;;;;;3.27;2.57;;;2.50;99.90;;;;;;5021584;28;20333;-54
2024/01/08 12:47:22;;;;;;;3.57;2.80;;;2.40;99.90;;;;;;5021224;28;20218;-53
2024/01/08 12:49:49;;;;;;;3.60;2.73;;;2.10;99.90;;;;;;5022017;28;20225;-52
2024/01/08 12:52:15;;;;;;;3.70;3.30;;;1.80;99.90;;;;;;5024234;28;20634;-51
2024/01/08 12:54:44;;;;;;;3.93;2.90;;;1.70;99.90;;;;;;5023322;28;20363;-50
2024/01/08 12:57:13;;;;;;;4.80;3.30;;;1.70;99.90;;;;;;5020617;28;20205;-51